Forside
METAR-TAF:

METAR-TAF

Lufthavne :

Pyongyang, Nordkorea

Breddekreds: 39-02N, længdekreds: 125-47E, højde: 36 m

METAR: fraværende

Tid: 01:00 (16:30 UTC)

Vejrudsigter

Denne rapport blev lavet for 13 timer og 0 minutter siden, kl. 03:30 UTC
Foreløbig gælder fra 16 på 06 UTC til 17 på 06 UTC
Vind 14 kt fra nordnordvest
Sigt 10 km eller mere
ingen skyer under 1500m og ingen cumulonimbus
ændring
fra 16 på 10 UTC til 16 på 12 UTC
Vind 6 kt fra nord
ændring
fra 16 på 16 UTC til 16 på 18 UTC
Vind 6 kt fra nord
Brudte skyer i en højde af 3300 ft

TAF: ZKPY 160330Z 1606/1706 34007MPS CAVOK BECMG 1610/1612 36003MPS BECMG 1616/1618 01003MPS BKN033 TX17/1607Z TN03/1621Z

Vejrobservationer og prognoser fra mere end 4000 lufthavne (METAR og TAF).

De gule og røde prikker repræsenterer de meteorologiske stationer.

Flyt musen over at se navnet på stationen.

Så klik over at se vejr observationer og prognoser.

At skifte det kort: Klik på de grønne knapper med et sort kors for at zoome ind; på den grønne knap med en bindestreg for at zoome ud; eller på de grønne pile for tilstødende kort.


METAR-TAF: